sensor_id;sensor_type;location;lat;lon;timestamp;P1;durP1;ratioP1;P2;durP2;ratioP2
40533;SDS011;26233;51.894;10.192;2023-01-28T00:00:54;2.20;;;1.23;;
40533;SDS011;26233;51.894;10.192;2023-01-28T00:03:21;1.63;;;1.30;;
40533;SDS011;26233;51.894;10.192;2023-01-28T00:05:48;1.17;;;1.07;;
40533;SDS011;26233;51.894;10.192;2023-01-28T00:08:19;2.03;;;0.90;;
40533;SDS011;26233;51.894;10.192;2023-01-28T00:10:46;2.30;;;1.10;;
40533;SDS011;26233;51.894;10.192;2023-01-28T00:13:13;2.07;;;1.10;;
40533;SDS011;26233;51.894;10.192;2023-01-28T00:15:40;1.10;;;1.00;;
40533;SDS011;26233;51.894;10.192;2023-01-28T00:18:09;1.63;;;1.10;;
40533;SDS011;26233;51.894;10.192;2023-01-28T00:20:36;0.97;;;0.80;;
40533;SDS011;26233;51.894;10.192;2023-01-28T00:23:03;1.43;;;0.90;;
40533;SDS011;26233;51.894;10.192;2023-01-28T00:25:30;2.37;;;1.20;;
40533;SDS011;26233;51.894;10.192;2023-01-28T00:27:59;1.37;;;1.17;;
40533;SDS011;26233;51.894;10.192;2023-01-28T00:30:26;1.37;;;1.03;;
40533;SDS011;26233;51.894;10.192;2023-01-28T00:32:53;1.60;;;1.10;;
40533;SDS011;26233;51.894;10.192;2023-01-28T00:35:22;1.97;;;1.10;;
40533;SDS011;26233;51.894;10.192;2023-01-28T00:37:49;1.10;;;1.00;;
40533;SDS011;26233;51.894;10.192;2023-01-28T00:40:16;1.27;;;0.97;;
40533;SDS011;26233;51.894;10.192;2023-01-28T00:42:43;1.20;;;1.00;;
40533;SDS011;26233;51.894;10.192;2023-01-28T00:45:10;1.63;;;1.00;;
40533;SDS011;26233;51.894;10.192;2023-01-28T00:47:37;1.97;;;1.00;;
40533;SDS011;26233;51.894;10.192;2023-01-28T00:50:05;1.93;;;1.33;;
40533;SDS011;26233;51.894;10.192;2023-01-28T00:52:34;1.70;;;1.17;;
40533;SDS011;26233;51.894;10.192;2023-01-28T00:55:01;1.00;;;0.90;;
40533;SDS011;26233;51.894;10.192;2023-01-28T00:57:28;2.07;;;1.03;;
40533;SDS011;26233;51.894;10.192;2023-01-28T00:59:55;0.90;;;0.90;;
40533;SDS011;26233;51.894;10.192;2023-01-28T01:02:24;0.90;;;0.90;;
40533;SDS011;26233;51.894;10.192;2023-01-28T01:04:52;1.97;;;0.90;;
40533;SDS011;26233;51.894;10.192;2023-01-28T01:07:25;1.80;;;0.90;;
40533;SDS011;26233;51.894;10.192;2023-01-28T01:10:08;1.00;;;0.90;;
40533;SDS011;26233;51.894;10.192;2023-01-28T01:12:40;1.03;;;0.90;;
40533;SDS011;26233;51.894;10.192;2023-01-28T01:15:07;1.57;;;1.13;;
40533;SDS011;26233;51.894;10.192;2023-01-28T01:17:38;1.10;;;1.00;;
40533;SDS011;26233;51.894;10.192;2023-01-28T01:20:10;1.63;;;1.10;;
40533;SDS011;26233;51.894;10.192;2023-01-28T01:22:41;0.87;;;0.87;;
40533;SDS011;26233;51.894;10.192;2023-01-28T01:25:10;1.20;;;1.00;;
40533;SDS011;26233;51.894;10.192;2023-01-28T01:27:39;1.23;;;0.90;;
40533;SDS011;26233;51.894;10.192;2023-01-28T01:30:07;1.40;;;1.13;;
40533;SDS011;26233;51.894;10.192;2023-01-28T01:32:35;1.33;;;0.90;;
40533;SDS011;26233;51.894;10.192;2023-01-28T01:35:03;1.30;;;1.00;;
40533;SDS011;26233;51.894;10.192;2023-01-28T01:37:32;1.20;;;1.00;;
40533;SDS011;26233;51.894;10.192;2023-01-28T01:40:00;1.80;;;1.17;;
40533;SDS011;26233;51.894;10.192;2023-01-28T01:42:30;1.33;;;1.17;;
40533;SDS011;26233;51.894;10.192;2023-01-28T01:44:59;2.27;;;1.10;;
40533;SDS011;26233;51.894;10.192;2023-01-28T01:47:31;1.73;;;1.07;;
40533;SDS011;26233;51.894;10.192;2023-01-28T01:50:06;2.67;;;1.33;;
40533;SDS011;26233;51.894;10.192;2023-01-28T01:52:42;2.17;;;1.10;;
40533;SDS011;26233;51.894;10.192;2023-01-28T01:55:13;2.00;;;1.40;;
40533;SDS011;26233;51.894;10.192;2023-01-28T01:57:45;1.13;;;1.00;;
40533;SDS011;26233;51.894;10.192;2023-01-28T02:00:15;1.30;;;1.10;;
40533;SDS011;26233;51.894;10.192;2023-01-28T02:02:44;1.63;;;1.10;;
40533;SDS011;26233;51.894;10.192;2023-01-28T02:05:14;1.80;;;1.07;;
40533;SDS011;26233;51.894;10.192;2023-01-28T02:07:44;1.17;;;1.00;;
40533;SDS011;26233;51.894;10.192;2023-01-28T02:10:41;1.40;;;1.20;;
40533;SDS011;26233;51.894;10.192;2023-01-28T02:13:12;1.43;;;1.23;;
40533;SDS011;26233;51.894;10.192;2023-01-28T02:15:40;1.30;;;1.20;;
40533;SDS011;26233;51.894;10.192;2023-01-28T02:18:09;1.33;;;1.23;;
40533;SDS011;26233;51.894;10.192;2023-01-28T02:20:42;2.40;;;1.10;;
40533;SDS011;26233;51.894;10.192;2023-01-28T02:23:30;1.30;;;1.20;;
40533;SDS011;26233;51.894;10.192;2023-01-28T02:26:25;2.70;;;1.30;;
40533;SDS011;26233;51.894;10.192;2023-01-28T02:29:24;0.90;;;0.90;;
40533;SDS011;26233;51.894;10.192;2023-01-28T02:31:58;1.37;;;1.27;;
40533;SDS011;26233;51.894;10.192;2023-01-28T02:34:33;1.27;;;1.13;;
40533;SDS011;26233;51.894;10.192;2023-01-28T02:37:06;2.07;;;1.30;;
40533;SDS011;26233;51.894;10.192;2023-01-28T02:39:39;1.40;;;1.10;;
40533;SDS011;26233;51.894;10.192;2023-01-28T02:42:13;2.13;;;1.20;;
40533;SDS011;26233;51.894;10.192;2023-01-28T02:44:45;2.03;;;1.30;;
40533;SDS011;26233;51.894;10.192;2023-01-28T02:47:12;2.37;;;1.30;;
40533;SDS011;26233;51.894;10.192;2023-01-28T02:50:01;1.73;;;1.40;;
40533;SDS011;26233;51.894;10.192;2023-01-28T02:52:35;1.47;;;1.30;;
40533;SDS011;26233;51.894;10.192;2023-01-28T02:55:38;1.03;;;0.97;;
40533;SDS011;26233;51.894;10.192;2023-01-28T02:58:11;1.50;;;1.07;;
40533;SDS011;26233;51.894;10.192;2023-01-28T03:00:51;1.67;;;1.10;;
40533;SDS011;26233;51.894;10.192;2023-01-28T03:03:26;1.33;;;1.17;;
40533;SDS011;26233;51.894;10.192;2023-01-28T03:06:01;1.40;;;1.30;;
40533;SDS011;26233;51.894;10.192;2023-01-28T03:08:32;1.23;;;1.13;;
40533;SDS011;26233;51.894;10.192;2023-01-28T03:11:22;2.30;;;1.53;;
40533;SDS011;26233;51.894;10.192;2023-01-28T03:14:09;1.97;;;1.00;;
40533;SDS011;26233;51.894;10.192;2023-01-28T03:16:55;1.20;;;1.10;;
40533;SDS011;26233;51.894;10.192;2023-01-28T03:19:42;1.67;;;1.10;;
40533;SDS011;26233;51.894;10.192;2023-01-28T03:22:28;1.50;;;1.27;;
40533;SDS011;26233;51.894;10.192;2023-01-28T03:25:19;1.10;;;1.00;;
40533;SDS011;26233;51.894;10.192;2023-01-28T03:28:07;2.17;;;1.43;;
40533;SDS011;26233;51.894;10.192;2023-01-28T03:30:57;1.70;;;1.00;;
40533;SDS011;26233;51.894;10.192;2023-01-28T03:33:48;1.67;;;1.10;;
40533;SDS011;26233;51.894;10.192;2023-01-28T03:36:35;1.40;;;1.10;;
40533;SDS011;26233;51.894;10.192;2023-01-28T03:39:12;1.53;;;1.20;;
40533;SDS011;26233;51.894;10.192;2023-01-28T03:41:41;1.30;;;1.00;;
40533;SDS011;26233;51.894;10.192;2023-01-28T03:44:08;1.20;;;1.10;;
40533;SDS011;26233;51.894;10.192;2023-01-28T03:46:53;1.73;;;1.40;;
40533;SDS011;26233;51.894;10.192;2023-01-28T03:49:22;1.50;;;1.00;;
40533;SDS011;26233;51.894;10.192;2023-01-28T03:51:49;2.67;;;1.10;;
40533;SDS011;26233;51.894;10.192;2023-01-28T03:54:16;1.10;;;1.00;;
40533;SDS011;26233;51.894;10.192;2023-01-28T03:56:43;0.93;;;0.90;;
40533;SDS011;26233;51.894;10.192;2023-01-28T03:59:10;1.50;;;1.20;;
40533;SDS011;26233;51.894;10.192;2023-01-28T04:01:40;1.27;;;1.17;;
40533;SDS011;26233;51.894;10.192;2023-01-28T04:04:09;1.20;;;1.10;;
40533;SDS011;26233;51.894;10.192;2023-01-28T04:06:48;1.37;;;1.00;;
40533;SDS011;26233;51.894;10.192;2023-01-28T04:09:16;1.63;;;1.20;;
40533;SDS011;26233;51.894;10.192;2023-01-28T04:11:43;1.63;;;1.10;;
40533;SDS011;26233;51.894;10.192;2023-01-28T04:14:11;1.60;;;1.17;;
40533;SDS011;26233;51.894;10.192;2023-01-28T04:16:39;1.10;;;0.83;;
40533;SDS011;26233;51.894;10.192;2023-01-28T04:19:11;1.10;;;1.00;;
40533;SDS011;26233;51.894;10.192;2023-01-28T04:21:38;0.77;;;0.70;;
40533;SDS011;26233;51.894;10.192;2023-01-28T04:24:07;1.00;;;1.00;;
40533;SDS011;26233;51.894;10.192;2023-01-28T04:26:34;1.20;;;0.90;;
40533;SDS011;26233;51.894;10.192;2023-01-28T04:29:01;1.70;;;1.00;;
40533;SDS011;26233;51.894;10.192;2023-01-28T04:31:28;0.83;;;0.80;;
40533;SDS011;26233;51.894;10.192;2023-01-28T04:33:56;2.00;;;0.90;;
40533;SDS011;26233;51.894;10.192;2023-01-28T04:36:23;0.80;;;0.80;;
40533;SDS011;26233;51.894;10.192;2023-01-28T04:38:51;0.80;;;0.80;;
40533;SDS011;26233;51.894;10.192;2023-01-28T04:41:19;0.90;;;0.90;;
40533;SDS011;26233;51.894;10.192;2023-01-28T04:43:46;1.13;;;0.90;;
40533;SDS011;26233;51.894;10.192;2023-01-28T04:46:14;1.00;;;0.90;;
40533;SDS011;26233;51.894;10.192;2023-01-28T04:48:41;0.93;;;0.90;;
40533;SDS011;26233;51.894;10.192;2023-01-28T04:51:08;0.80;;;0.80;;
40533;SDS011;26233;51.894;10.192;2023-01-28T04:53:35;1.50;;;0.90;;
40533;SDS011;26233;51.894;10.192;2023-01-28T04:56:05;1.20;;;1.00;;
40533;SDS011;26233;51.894;10.192;2023-01-28T04:58:33;0.97;;;0.83;;
40533;SDS011;26233;51.894;10.192;2023-01-28T05:01:00;1.13;;;1.07;;
40533;SDS011;26233;51.894;10.192;2023-01-28T05:03:28;1.00;;;0.90;;
40533;SDS011;26233;51.894;10.192;2023-01-28T05:05:55;1.00;;;0.80;;
40533;SDS011;26233;51.894;10.192;2023-01-28T05:08:22;1.90;;;0.90;;
40533;SDS011;26233;51.894;10.192;2023-01-28T05:10:50;0.80;;;0.80;;
40533;SDS011;26233;51.894;10.192;2023-01-28T05:13:17;0.87;;;0.87;;
40533;SDS011;26233;51.894;10.192;2023-01-28T05:15:50;2.17;;;0.90;;
40533;SDS011;26233;51.894;10.192;2023-01-28T05:18:18;1.60;;;1.10;;
40533;SDS011;26233;51.894;10.192;2023-01-28T05:20:46;1.00;;;0.90;;
40533;SDS011;26233;51.894;10.192;2023-01-28T05:23:12;1.10;;;0.90;;
40533;SDS011;26233;51.894;10.192;2023-01-28T05:25:40;1.47;;;0.90;;
40533;SDS011;26233;51.894;10.192;2023-01-28T05:28:07;1.10;;;1.00;;
40533;SDS011;26233;51.894;10.192;2023-01-28T05:30:34;1.03;;;0.93;;
40533;SDS011;26233;51.894;10.192;2023-01-28T05:33:05;0.90;;;0.90;;
40533;SDS011;26233;51.894;10.192;2023-01-28T05:35:32;0.90;;;0.80;;
40533;SDS011;26233;51.894;10.192;2023-01-28T05:38:00;1.00;;;0.90;;
40533;SDS011;26233;51.894;10.192;2023-01-28T05:40:30;1.60;;;1.00;;
40533;SDS011;26233;51.894;10.192;2023-01-28T05:42:57;1.70;;;0.90;;
40533;SDS011;26233;51.894;10.192;2023-01-28T05:45:24;1.93;;;1.00;;
40533;SDS011;26233;51.894;10.192;2023-01-28T05:47:51;1.53;;;1.00;;
40533;SDS011;26233;51.894;10.192;2023-01-28T05:50:19;1.47;;;1.00;;
40533;SDS011;26233;51.894;10.192;2023-01-28T05:52:49;0.87;;;0.87;;
40533;SDS011;26233;51.894;10.192;2023-01-28T05:55:16;1.30;;;1.00;;
40533;SDS011;26233;51.894;10.192;2023-01-28T05:57:43;0.93;;;0.90;;
40533;SDS011;26233;51.894;10.192;2023-01-28T06:00:11;1.67;;;1.10;;
40533;SDS011;26233;51.894;10.192;2023-01-28T06:02:40;1.53;;;1.00;;
40533;SDS011;26233;51.894;10.192;2023-01-28T06:05:07;1.00;;;1.00;;
40533;SDS011;26233;51.894;10.192;2023-01-28T06:07:36;1.10;;;1.00;;
40533;SDS011;26233;51.894;10.192;2023-01-28T06:10:03;1.13;;;1.10;;
40533;SDS011;26233;51.894;10.192;2023-01-28T06:12:32;0.90;;;0.90;;
40533;SDS011;26233;51.894;10.192;2023-01-28T06:14:59;1.30;;;1.20;;
40533;SDS011;26233;51.894;10.192;2023-01-28T06:17:26;0.97;;;0.97;;
40533;SDS011;26233;51.894;10.192;2023-01-28T06:19:57;1.23;;;1.13;;
40533;SDS011;26233;51.894;10.192;2023-01-28T06:22:24;1.50;;;1.20;;
40533;SDS011;26233;51.894;10.192;2023-01-28T06:24:55;1.20;;;1.10;;
40533;SDS011;26233;51.894;10.192;2023-01-28T06:27:22;1.27;;;1.10;;
40533;SDS011;26233;51.894;10.192;2023-01-28T06:29:49;1.87;;;1.20;;
40533;SDS011;26233;51.894;10.192;2023-01-28T06:32:16;1.30;;;1.20;;
40533;SDS011;26233;51.894;10.192;2023-01-28T06:34:45;1.50;;;1.40;;
40533;SDS011;26233;51.894;10.192;2023-01-28T06:37:12;1.93;;;1.40;;
40533;SDS011;26233;51.894;10.192;2023-01-28T06:39:39;1.27;;;1.20;;
40533;SDS011;26233;51.894;10.192;2023-01-28T06:42:08;1.77;;;1.37;;
40533;SDS011;26233;51.894;10.192;2023-01-28T06:44:38;1.50;;;1.40;;
40533;SDS011;26233;51.894;10.192;2023-01-28T06:47:05;1.47;;;1.30;;
40533;SDS011;26233;51.894;10.192;2023-01-28T06:49:33;1.30;;;1.20;;
40533;SDS011;26233;51.894;10.192;2023-01-28T06:52:00;2.93;;;1.60;;
40533;SDS011;26233;51.894;10.192;2023-01-28T06:54:27;1.30;;;1.20;;
40533;SDS011;26233;51.894;10.192;2023-01-28T06:56:54;1.93;;;1.53;;
40533;SDS011;26233;51.894;10.192;2023-01-28T06:59:23;1.60;;;1.50;;
40533;SDS011;26233;51.894;10.192;2023-01-28T07:01:50;1.53;;;1.33;;
40533;SDS011;26233;51.894;10.192;2023-01-28T07:04:17;2.17;;;1.70;;
40533;SDS011;26233;51.894;10.192;2023-01-28T07:06:44;1.70;;;1.60;;
40533;SDS011;26233;51.894;10.192;2023-01-28T07:09:11;1.90;;;1.80;;
40533;SDS011;26233;51.894;10.192;2023-01-28T07:11:38;1.93;;;1.73;;
40533;SDS011;26233;51.894;10.192;2023-01-28T07:14:05;1.67;;;1.57;;
40533;SDS011;26233;51.894;10.192;2023-01-28T07:16:33;1.90;;;1.80;;
40533;SDS011;26233;51.894;10.192;2023-01-28T07:19:00;2.17;;;1.93;;
40533;SDS011;26233;51.894;10.192;2023-01-28T07:21:27;2.00;;;1.80;;
40533;SDS011;26233;51.894;10.192;2023-01-28T07:23:54;2.40;;;2.20;;
40533;SDS011;26233;51.894;10.192;2023-01-28T07:26:21;2.23;;;2.03;;
40533;SDS011;26233;51.894;10.192;2023-01-28T07:28:48;2.23;;;2.03;;
40533;SDS011;26233;51.894;10.192;2023-01-28T07:31:16;3.30;;;2.20;;
40533;SDS011;26233;51.894;10.192;2023-01-28T07:33:46;2.60;;;2.00;;
40533;SDS011;26233;51.894;10.192;2023-01-28T07:36:13;2.00;;;1.90;;
40533;SDS011;26233;51.894;10.192;2023-01-28T07:38:40;1.80;;;1.70;;
40533;SDS011;26233;51.894;10.192;2023-01-28T07:41:09;2.00;;;1.80;;
40533;SDS011;26233;51.894;10.192;2023-01-28T07:43:36;1.70;;;1.60;;
40533;SDS011;26233;51.894;10.192;2023-01-28T07:46:03;1.60;;;1.50;;
40533;SDS011;26233;51.894;10.192;2023-01-28T07:48:33;1.60;;;1.50;;
40533;SDS011;26233;51.894;10.192;2023-01-28T07:51:02;2.00;;;1.90;;
40533;SDS011;26233;51.894;10.192;2023-01-28T07:53:29;1.70;;;1.60;;
40533;SDS011;26233;51.894;10.192;2023-01-28T07:55:59;1.90;;;1.70;;
40533;SDS011;26233;51.894;10.192;2023-01-28T07:58:27;2.77;;;1.80;;
40533;SDS011;26233;51.894;10.192;2023-01-28T08:00:55;2.60;;;1.77;;
40533;SDS011;26233;51.894;10.192;2023-01-28T08:03:26;2.10;;;1.90;;
40533;SDS011;26233;51.894;10.192;2023-01-28T08:05:54;2.10;;;2.00;;
40533;SDS011;26233;51.894;10.192;2023-01-28T08:08:23;2.50;;;2.27;;
40533;SDS011;26233;51.894;10.192;2023-01-28T08:10:51;2.23;;;2.03;;
40533;SDS011;26233;51.894;10.192;2023-01-28T08:13:19;2.50;;;2.30;;
40533;SDS011;26233;51.894;10.192;2023-01-28T08:15:46;2.60;;;2.40;;
40533;SDS011;26233;51.894;10.192;2023-01-28T08:18:14;2.37;;;2.17;;
40533;SDS011;26233;51.894;10.192;2023-01-28T08:20:44;2.70;;;2.20;;
40533;SDS011;26233;51.894;10.192;2023-01-28T08:23:12;2.40;;;2.20;;
40533;SDS011;26233;51.894;10.192;2023-01-28T08:25:42;2.77;;;2.03;;
40533;SDS011;26233;51.894;10.192;2023-01-28T08:28:12;2.13;;;1.93;;
40533;SDS011;26233;51.894;10.192;2023-01-28T08:30:41;2.20;;;1.87;;
40533;SDS011;26233;51.894;10.192;2023-01-28T08:33:09;2.20;;;2.00;;
40533;SDS011;26233;51.894;10.192;2023-01-28T08:35:40;1.87;;;1.77;;
40533;SDS011;26233;51.894;10.192;2023-01-28T08:38:07;2.40;;;1.93;;
40533;SDS011;26233;51.894;10.192;2023-01-28T08:40:36;2.20;;;2.00;;
40533;SDS011;26233;51.894;10.192;2023-01-28T08:43:04;2.60;;;1.93;;
40533;SDS011;26233;51.894;10.192;2023-01-28T08:45:32;2.00;;;1.73;;
40533;SDS011;26233;51.894;10.192;2023-01-28T08:48:01;1.80;;;1.70;;
40533;SDS011;26233;51.894;10.192;2023-01-28T08:50:31;1.60;;;1.50;;
40533;SDS011;26233;51.894;10.192;2023-01-28T08:53:01;1.80;;;1.40;;
40533;SDS011;26233;51.894;10.192;2023-01-28T08:55:30;1.83;;;1.73;;
40533;SDS011;26233;51.894;10.192;2023-01-28T08:58:05;1.87;;;1.77;;
40533;SDS011;26233;51.894;10.192;2023-01-28T09:00:36;1.60;;;1.50;;
40533;SDS011;26233;51.894;10.192;2023-01-28T09:03:04;1.40;;;1.30;;
40533;SDS011;26233;51.894;10.192;2023-01-28T09:05:32;1.47;;;1.27;;
40533;SDS011;26233;51.894;10.192;2023-01-28T09:08:00;1.63;;;1.30;;
40533;SDS011;26233;51.894;10.192;2023-01-28T09:10:28;1.47;;;1.17;;
40533;SDS011;26233;51.894;10.192;2023-01-28T09:13:04;1.63;;;1.00;;
40533;SDS011;26233;51.894;10.192;2023-01-28T09:15:32;1.87;;;1.20;;
40533;SDS011;26233;51.894;10.192;2023-01-28T09:17:59;1.20;;;1.10;;
40533;SDS011;26233;51.894;10.192;2023-01-28T09:20:26;2.00;;;1.30;;
40533;SDS011;26233;51.894;10.192;2023-01-28T09:22:53;1.23;;;1.13;;
40533;SDS011;26233;51.894;10.192;2023-01-28T09:25:20;1.37;;;1.17;;
40533;SDS011;26233;51.894;10.192;2023-01-28T09:27:47;1.30;;;1.20;;
40533;SDS011;26233;51.894;10.192;2023-01-28T09:30:16;1.40;;;1.30;;
40533;SDS011;26233;51.894;10.192;2023-01-28T09:32:43;1.63;;;1.40;;
40533;SDS011;26233;51.894;10.192;2023-01-28T09:35:10;2.10;;;2.00;;
40533;SDS011;26233;51.894;10.192;2023-01-28T09:37:39;2.00;;;1.90;;
40533;SDS011;26233;51.894;10.192;2023-01-28T09:40:08;1.60;;;1.50;;
40533;SDS011;26233;51.894;10.192;2023-01-28T09:42:55;1.53;;;1.30;;
40533;SDS011;26233;51.894;10.192;2023-01-28T09:45:46;1.80;;;1.70;;
40533;SDS011;26233;51.894;10.192;2023-01-28T09:48:16;1.50;;;1.40;;
40533;SDS011;26233;51.894;10.192;2023-01-28T09:50:47;1.60;;;1.37;;
40533;SDS011;26233;51.894;10.192;2023-01-28T09:53:19;1.57;;;1.47;;
40533;SDS011;26233;51.894;10.192;2023-01-28T09:55:49;2.60;;;2.40;;
40533;SDS011;26233;51.894;10.192;2023-01-28T09:58:20;2.60;;;2.00;;
40533;SDS011;26233;51.894;10.192;2023-01-28T10:00:51;2.13;;;1.93;;
40533;SDS011;26233;51.894;10.192;2023-01-28T10:03:30;2.37;;;1.73;;
40533;SDS011;26233;51.894;10.192;2023-01-28T10:06:08;1.70;;;1.60;;
40533;SDS011;26233;51.894;10.192;2023-01-28T10:08:57;2.03;;;1.80;;
40533;SDS011;26233;51.894;10.192;2023-01-28T10:11:44;1.93;;;1.83;;
40533;SDS011;26233;51.894;10.192;2023-01-28T10:14:24;1.70;;;1.60;;
40533;SDS011;26233;51.894;10.192;2023-01-28T10:17:05;1.90;;;1.70;;
40533;SDS011;26233;51.894;10.192;2023-01-28T10:19:39;1.80;;;1.70;;
40533;SDS011;26233;51.894;10.192;2023-01-28T10:22:11;1.90;;;1.80;;
40533;SDS011;26233;51.894;10.192;2023-01-28T10:24:44;1.70;;;1.60;;
40533;SDS011;26233;51.894;10.192;2023-01-28T10:27:16;1.80;;;1.70;;
40533;SDS011;26233;51.894;10.192;2023-01-28T10:29:47;1.60;;;1.50;;
40533;SDS011;26233;51.894;10.192;2023-01-28T10:32:22;1.77;;;1.63;;
40533;SDS011;26233;51.894;10.192;2023-01-28T10:34:55;1.93;;;1.73;;
40533;SDS011;26233;51.894;10.192;2023-01-28T10:37:26;2.50;;;2.30;;
40533;SDS011;26233;51.894;10.192;2023-01-28T10:39:54;2.93;;;2.43;;
40533;SDS011;26233;51.894;10.192;2023-01-28T10:42:26;3.03;;;2.67;;
40533;SDS011;26233;51.894;10.192;2023-01-28T10:44:56;2.70;;;2.50;;
40533;SDS011;26233;51.894;10.192;2023-01-28T10:47:30;2.50;;;2.20;;
40533;SDS011;26233;51.894;10.192;2023-01-28T10:50:05;3.00;;;2.80;;
40533;SDS011;26233;51.894;10.192;2023-01-28T10:52:49;2.70;;;2.50;;
40533;SDS011;26233;51.894;10.192;2023-01-28T10:55:19;2.30;;;2.13;;
40533;SDS011;26233;51.894;10.192;2023-01-28T10:57:47;2.47;;;2.27;;
40533;SDS011;26233;51.894;10.192;2023-01-28T11:00:21;2.50;;;2.30;;
40533;SDS011;26233;51.894;10.192;2023-01-28T11:02:53;2.37;;;2.17;;
40533;SDS011;26233;51.894;10.192;2023-01-28T11:05:21;2.17;;;2.00;;
40533;SDS011;26233;51.894;10.192;2023-01-28T11:08:01;2.33;;;2.20;;
40533;SDS011;26233;51.894;10.192;2023-01-28T11:10:33;2.30;;;2.10;;
40533;SDS011;26233;51.894;10.192;2023-01-28T11:13:02;2.27;;;2.07;;
40533;SDS011;26233;51.894;10.192;2023-01-28T11:15:31;2.33;;;2.13;;
40533;SDS011;26233;51.894;10.192;2023-01-28T11:18:02;2.23;;;2.10;;
40533;SDS011;26233;51.894;10.192;2023-01-28T11:20:34;2.30;;;2.10;;
40533;SDS011;26233;51.894;10.192;2023-01-28T11:23:16;2.73;;;2.00;;
40533;SDS011;26233;51.894;10.192;2023-01-28T11:25:46;1.97;;;1.87;;
40533;SDS011;26233;51.894;10.192;2023-01-28T11:28:14;2.20;;;2.00;;
40533;SDS011;26233;51.894;10.192;2023-01-28T11:30:52;1.77;;;1.67;;
40533;SDS011;26233;51.894;10.192;2023-01-28T11:33:27;2.17;;;1.53;;
40533;SDS011;26233;51.894;10.192;2023-01-28T11:36:04;1.57;;;1.47;;
40533;SDS011;26233;51.894;10.192;2023-01-28T11:38:45;2.37;;;1.90;;
40533;SDS011;26233;51.894;10.192;2023-01-28T11:41:15;1.50;;;1.40;;
40533;SDS011;26233;51.894;10.192;2023-01-28T11:43:42;2.27;;;1.53;;
40533;SDS011;26233;51.894;10.192;2023-01-28T11:46:16;1.60;;;1.50;;
40533;SDS011;26233;51.894;10.192;2023-01-28T11:49:12;1.57;;;1.47;;
40533;SDS011;26233;51.894;10.192;2023-01-28T11:51:51;1.47;;;1.30;;
40533;SDS011;26233;51.894;10.192;2023-01-28T11:54:26;1.40;;;1.30;;
40533;SDS011;26233;51.894;10.192;2023-01-28T11:57:12;2.10;;;1.23;;
40533;SDS011;26233;51.894;10.192;2023-01-28T12:02:59;1.20;;;1.10;;
40533;SDS011;26233;51.894;10.192;2023-01-28T12:06:06;1.30;;;1.20;;
40533;SDS011;26233;51.894;10.192;2023-01-28T12:08:54;1.40;;;1.30;;
40533;SDS011;26233;51.894;10.192;2023-01-28T12:11:32;1.30;;;1.20;;
40533;SDS011;26233;51.894;10.192;2023-01-28T12:14:29;2.43;;;1.33;;
40533;SDS011;26233;51.894;10.192;2023-01-28T12:17:10;3.00;;;1.57;;
40533;SDS011;26233;51.894;10.192;2023-01-28T12:19:49;3.17;;;1.60;;
40533;SDS011;26233;51.894;10.192;2023-01-28T12:22:35;1.47;;;1.37;;
40533;SDS011;26233;51.894;10.192;2023-01-28T12:25:46;1.50;;;1.40;;
40533;SDS011;26233;51.894;10.192;2023-01-28T12:28:29;2.00;;;1.80;;
40533;SDS011;26233;51.894;10.192;2023-01-28T12:37:59;1.90;;;1.80;;
40533;SDS011;26233;51.894;10.192;2023-01-28T12:40:49;1.90;;;1.80;;
40533;SDS011;26233;51.894;10.192;2023-01-28T12:43:28;2.00;;;1.90;;
40533;SDS011;26233;51.894;10.192;2023-01-28T12:46:10;1.67;;;1.57;;
40533;SDS011;26233;51.894;10.192;2023-01-28T12:48:48;2.27;;;1.87;;
40533;SDS011;26233;51.894;10.192;2023-01-28T12:51:22;2.20;;;2.00;;
40533;SDS011;26233;51.894;10.192;2023-01-28T12:53:57;2.37;;;1.90;;
40533;SDS011;26233;51.894;10.192;2023-01-28T12:56:32;1.80;;;1.70;;
40533;SDS011;26233;51.894;10.192;2023-01-28T12:59:02;2.00;;;1.70;;
40533;SDS011;26233;51.894;10.192;2023-01-28T13:01:36;1.60;;;1.50;;
40533;SDS011;26233;51.894;10.192;2023-01-28T13:04:11;1.63;;;1.53;;
40533;SDS011;26233;51.894;10.192;2023-01-28T13:06:49;1.90;;;1.80;;
40533;SDS011;26233;51.894;10.192;2023-01-28T13:09:24;1.93;;;1.50;;
40533;SDS011;26233;51.894;10.192;2023-01-28T13:11:53;1.97;;;1.60;;
40533;SDS011;26233;51.894;10.192;2023-01-28T13:14:24;1.80;;;1.67;;
40533;SDS011;26233;51.894;10.192;2023-01-28T13:16:55;1.90;;;1.70;;
40533;SDS011;26233;51.894;10.192;2023-01-28T13:19:35;1.60;;;1.50;;
40533;SDS011;26233;51.894;10.192;2023-01-28T13:22:11;2.00;;;1.60;;
40533;SDS011;26233;51.894;10.192;2023-01-28T13:24:53;2.80;;;1.80;;
40533;SDS011;26233;51.894;10.192;2023-01-28T13:27:22;1.63;;;1.50;;
40533;SDS011;26233;51.894;10.192;2023-01-28T13:30:01;2.20;;;1.80;;
40533;SDS011;26233;51.894;10.192;2023-01-28T13:32:32;1.57;;;1.47;;
40533;SDS011;26233;51.894;10.192;2023-01-28T13:35:02;1.60;;;1.50;;
40533;SDS011;26233;51.894;10.192;2023-01-28T13:37:33;1.60;;;1.50;;
40533;SDS011;26233;51.894;10.192;2023-01-28T13:40:07;1.63;;;1.53;;
40533;SDS011;26233;51.894;10.192;2023-01-28T13:42:56;1.57;;;1.47;;
40533;SDS011;26233;51.894;10.192;2023-01-28T13:45:26;1.63;;;1.53;;
40533;SDS011;26233;51.894;10.192;2023-01-28T13:47:56;1.63;;;1.53;;
40533;SDS011;26233;51.894;10.192;2023-01-28T13:50:33;2.07;;;1.60;;
40533;SDS011;26233;51.894;10.192;2023-01-28T13:53:12;2.20;;;2.10;;
40533;SDS011;26233;51.894;10.192;2023-01-28T13:55:49;2.03;;;1.87;;
40533;SDS011;26233;51.894;10.192;2023-01-28T13:58:33;1.80;;;1.70;;
40533;SDS011;26233;51.894;10.192;2023-01-28T14:01:21;1.67;;;1.57;;
40533;SDS011;26233;51.894;10.192;2023-01-28T14:04:13;1.83;;;1.57;;
40533;SDS011;26233;51.894;10.192;2023-01-28T14:07:42;1.70;;;1.60;;
40533;SDS011;26233;51.894;10.192;2023-01-28T14:10:37;1.60;;;1.50;;
40533;SDS011;26233;51.894;10.192;2023-01-28T14:13:28;1.83;;;1.70;;
40533;SDS011;26233;51.894;10.192;2023-01-28T14:19:01;1.70;;;1.53;;
40533;SDS011;26233;51.894;10.192;2023-01-28T14:21:31;2.03;;;1.70;;
40533;SDS011;26233;51.894;10.192;2023-01-28T14:24:00;1.80;;;1.60;;
40533;SDS011;26233;51.894;10.192;2023-01-28T14:26:33;2.33;;;1.60;;
40533;SDS011;26233;51.894;10.192;2023-01-28T14:29:17;1.80;;;1.70;;
40533;SDS011;26233;51.894;10.192;2023-01-28T14:31:53;1.93;;;1.50;;
40533;SDS011;26233;51.894;10.192;2023-01-28T14:34:22;1.77;;;1.67;;
40533;SDS011;26233;51.894;10.192;2023-01-28T14:36:54;1.87;;;1.43;;
40533;SDS011;26233;51.894;10.192;2023-01-28T14:39:24;1.67;;;1.57;;
40533;SDS011;26233;51.894;10.192;2023-01-28T14:41:56;1.60;;;1.50;;
40533;SDS011;26233;51.894;10.192;2023-01-28T14:44:27;2.00;;;1.80;;
40533;SDS011;26233;51.894;10.192;2023-01-28T14:47:16;1.90;;;1.70;;
40533;SDS011;26233;51.894;10.192;2023-01-28T14:50:29;2.10;;;1.90;;
40533;SDS011;26233;51.894;10.192;2023-01-28T14:53:24;2.37;;;1.70;;
40533;SDS011;26233;51.894;10.192;2023-01-28T14:56:16;1.70;;;1.50;;
40533;SDS011;26233;51.894;10.192;2023-01-28T14:58:55;1.87;;;1.77;;
40533;SDS011;26233;51.894;10.192;2023-01-28T15:01:28;1.73;;;1.63;;
40533;SDS011;26233;51.894;10.192;2023-01-28T15:03:56;1.87;;;1.77;;
40533;SDS011;26233;51.894;10.192;2023-01-28T15:06:24;3.80;;;2.50;;
40533;SDS011;26233;51.894;10.192;2023-01-28T15:09:04;3.33;;;2.20;;
40533;SDS011;26233;51.894;10.192;2023-01-28T15:11:37;2.70;;;2.50;;
40533;SDS011;26233;51.894;10.192;2023-01-28T15:14:11;4.07;;;2.60;;
40533;SDS011;26233;51.894;10.192;2023-01-28T15:16:46;2.07;;;1.87;;
40533;SDS011;26233;51.894;10.192;2023-01-28T15:19:14;2.30;;;2.10;;